Time;durP1;ratioP1;P1;durP2;ratioP2;P2;SDS_P1;SDS_P2;PMS_P1;PMS_P2;Temp;Humidity;BMP_temperature;BMP_pressure;BME280_temperature;BME280_humidity;BME280_pressure;Samples;Min_cycle;Max_cycle;Signal;HPM_P1;HPM_P2
2022/11/23 05:31:45;;;;;;;;;13.33;11.00;;;;;;;;5014082;24;46361;-59
2022/11/23 05:34:10;;;;;;;;;14.00;9.33;;;;;;;;4720026;30;45327;-60
2022/11/23 05:36:35;;;;;;;;;12.67;9.00;;;;;;;;4715029;30;45350;-60
2022/11/23 05:39:00;;;;;;;;;8.67;7.33;;;;;;;;4715268;30;45625;-60
2022/11/23 05:41:25;;;;;;;;;10.00;9.33;;;;;;;;4717434;30;45323;-60
2022/11/23 05:43:51;;;;;;;;;10.33;7.00;;;;;;;;4720769;30;45620;-60
2022/11/23 05:46:16;;;;;;;;;9.33;5.67;;;;;;;;4717857;30;45423;-60
2022/11/23 05:48:41;;;;;;;;;11.67;7.67;;;;;;;;4719125;30;45281;-60
2022/11/23 05:51:06;;;;;;;;;5.67;4.00;;;;;;;;4720307;30;45946;-60
2022/11/23 05:53:31;;;;;;;;;7.00;5.33;;;;;;;;4715728;30;46024;-60
2022/11/23 05:56:00;;;;;;;;;7.67;7.00;;;;;;;;4715124;30;45476;-60
2022/11/23 05:58:26;;;;;;;;;6.67;3.33;;;;;;;;4717995;30;45415;-60
2022/11/23 06:00:51;;;;;;;;;5.00;5.00;;;;;;;;4717250;30;45925;-60
2022/11/23 06:03:16;;;;;;;;;5.00;4.00;;;;;;;;4717132;30;45503;-60
2022/11/23 06:05:41;;;;;;;;;4.00;4.00;;;;;;;;4717813;30;45459;-60
2022/11/23 06:08:07;;;;;;;;;5.33;5.33;;;;;;;;4701701;30;45514;-60
2022/11/23 06:10:32;;;;;;;;;5.00;4.33;;;;;;;;4717165;30;45319;-60
2022/11/23 06:13:03;;;;;;;;;7.67;5.00;;;;;;;;4720673;30;45453;-60
2022/11/23 06:15:29;;;;;;;;;4.33;3.67;;;;;;;;4717591;30;45355;-60
2022/11/23 06:17:57;;;;;;;;;6.00;5.00;;;;;;;;4704137;30;45579;-60
2022/11/23 06:20:22;;;;;;;;;6.00;6.00;;;;;;;;4719429;30;46401;-60
2022/11/23 06:22:51;;;;;;;;;6.00;5.00;;;;;;;;4716837;30;45487;-60
2022/11/23 06:25:17;;;;;;;;;6.00;4.67;;;;;;;;4703841;30;45413;-60
2022/11/23 06:27:42;;;;;;;;;7.00;7.00;;;;;;;;4704264;30;45238;-60
2022/11/23 06:30:07;;;;;;;;;9.33;7.00;;;;;;;;4711128;30;45435;-60
2022/11/23 06:32:32;;;;;;;;;7.67;5.33;;;;;;;;4714306;30;45392;-60
2022/11/23 06:34:58;;;;;;;;;5.33;5.00;;;;;;;;4715001;30;45341;-60
2022/11/23 06:37:23;;;;;;;;;8.33;5.33;;;;;;;;4708800;30;45672;-62
2022/11/23 06:39:48;;;;;;;;;6.33;4.67;;;;;;;;4713805;30;45424;-61
2022/11/23 06:42:13;;;;;;;;;5.00;4.00;;;;;;;;4714943;30;45449;-59
2022/11/23 06:44:38;;;;;;;;;11.67;7.00;;;;;;;;4714796;30;45401;-60
2022/11/23 06:47:03;;;;;;;;;8.33;5.33;;;;;;;;4708917;30;45251;-60
2022/11/23 06:49:29;;;;;;;;;6.00;6.00;;;;;;;;4708977;30;45420;-60
2022/11/23 06:51:54;;;;;;;;;8.33;6.33;;;;;;;;4716912;30;45370;-60
2022/11/23 06:54:19;;;;;;;;;7.00;6.00;;;;;;;;4711647;30;45281;-60
2022/11/23 06:56:44;;;;;;;;;13.00;6.67;;;;;;;;4710814;30;45430;-60
2022/11/23 06:59:09;;;;;;;;;9.67;7.00;;;;;;;;4711605;30;46097;-60
2022/11/23 07:01:34;;;;;;;;;3.00;3.00;;;;;;;;4702288;30;45196;-60
2022/11/23 07:04:00;;;;;;;;;11.67;6.00;;;;;;;;4710969;30;45621;-59
2022/11/23 07:06:25;;;;;;;;;4.33;4.00;;;;;;;;4698983;30;45535;-62
2022/11/23 07:08:52;;;;;;;;;8.00;8.00;;;;;;;;4719404;30;46195;-62
2022/11/23 07:11:18;;;;;;;;;7.00;5.33;;;;;;;;4719019;30;45444;-60
2022/11/23 07:13:43;;;;;;;;;11.33;6.67;;;;;;;;4719833;30;45241;-60
2022/11/23 07:16:08;;;;;;;;;6.33;5.67;;;;;;;;4707762;30;45313;-59
2022/11/23 07:18:34;;;;;;;;;8.33;6.00;;;;;;;;4710316;30;47188;-57
2022/11/23 07:20:59;;;;;;;;;10.33;9.67;;;;;;;;4703071;30;45425;-58
2022/11/23 07:23:24;;;;;;;;;5.67;5.67;;;;;;;;4709391;30;45372;-58
2022/11/23 07:25:49;;;;;;;;;7.33;7.33;;;;;;;;4716637;30;45336;-59
2022/11/23 07:28:15;;;;;;;;;9.33;7.67;;;;;;;;4715995;30;45529;-59
2022/11/23 07:30:40;;;;;;;;;6.00;6.00;;;;;;;;4715102;30;45273;-59
2022/11/23 07:33:07;;;;;;;;;7.67;7.67;;;;;;;;4715966;30;45778;-60
2022/11/23 07:35:33;;;;;;;;;6.00;6.00;;;;;;;;4717341;30;45655;-59
2022/11/23 07:37:58;;;;;;;;;6.33;5.00;;;;;;;;4716435;30;46236;-60
2022/11/23 07:40:24;;;;;;;;;5.33;5.00;;;;;;;;4716731;30;45422;-60
2022/11/23 07:42:49;;;;;;;;;7.00;6.00;;;;;;;;4715970;30;45547;-62
2022/11/23 07:45:14;;;;;;;;;6.33;5.00;;;;;;;;4716504;30;45214;-60
2022/11/23 07:47:39;;;;;;;;;7.00;4.33;;;;;;;;4716554;30;46933;-60
2022/11/23 07:50:05;;;;;;;;;7.33;5.67;;;;;;;;4711314;30;45433;-60
2022/11/23 07:52:31;;;;;;;;;5.00;4.00;;;;;;;;4714539;30;45465;-60
2022/11/23 07:54:56;;;;;;;;;5.67;4.67;;;;;;;;4715099;30;45630;-60
2022/11/23 07:57:21;;;;;;;;;6.00;5.00;;;;;;;;4712489;30;45499;-60
2022/11/23 07:59:46;;;;;;;;;3.00;3.00;;;;;;;;4713630;30;45410;-60
2022/11/23 08:02:13;;;;;;;;;6.00;5.33;;;;;;;;4711310;30;45590;-60
2022/11/23 08:04:38;;;;;;;;;4.00;4.00;;;;;;;;4715438;30;45501;-60
2022/11/23 08:07:03;;;;;;;;;5.67;4.00;;;;;;;;4717436;30;46105;-60
2022/11/23 08:09:28;;;;;;;;;3.33;3.33;;;;;;;;4710278;30;45276;-60
2022/11/23 08:11:54;;;;;;;;;4.00;3.00;;;;;;;;4714332;30;45562;-60
2022/11/23 08:14:19;;;;;;;;;4.67;3.00;;;;;;;;4707229;30;45547;-60
2022/11/23 08:16:47;;;;;;;;;5.00;2.00;;;;;;;;4714345;30;46830;-60
2022/11/23 08:19:12;;;;;;;;;3.00;2.33;;;;;;;;4712740;30;45470;-60
2022/11/23 08:21:38;;;;;;;;;3.00;3.00;;;;;;;;4712862;30;45574;-60
2022/11/23 08:24:03;;;;;;;;;4.00;4.00;;;;;;;;4717490;30;45448;-60
2022/11/23 08:26:29;;;;;;;;;7.33;5.00;;;;;;;;4711085;30;47235;-60
2022/11/23 08:28:56;;;;;;;;;4.00;4.00;;;;;;;;4711538;30;45641;-60
2022/11/23 08:31:21;;;;;;;;;6.33;4.67;;;;;;;;4713864;30;45608;-60
2022/11/23 08:33:46;;;;;;;;;5.33;4.00;;;;;;;;4718986;30;45309;-60
2022/11/23 08:36:11;;;;;;;;;5.67;4.67;;;;;;;;4716262;30;45531;-59
2022/11/23 08:38:37;;;;;;;;;7.33;5.00;;;;;;;;4714860;30;45403;-59
2022/11/23 08:41:02;;;;;;;;;5.33;4.67;;;;;;;;4716310;30;45474;-59
2022/11/23 08:43:28;;;;;;;;;4.33;2.67;;;;;;;;4718452;30;45334;-59
2022/11/23 08:45:56;;;;;;;;;4.00;4.00;;;;;;;;4717372;30;46119;-59
2022/11/23 08:48:22;;;;;;;;;5.00;3.00;;;;;;;;4718078;30;45440;-59
2022/11/23 08:50:47;;;;;;;;;5.33;5.00;;;;;;;;4721157;30;45221;-61
2022/11/23 08:53:12;;;;;;;;;5.00;4.00;;;;;;;;4724098;30;45210;-59
2022/11/23 08:55:37;;;;;;;;;8.00;5.33;;;;;;;;4716574;30;45416;-60
2022/11/23 08:58:02;;;;;;;;;6.00;4.00;;;;;;;;4716409;30;45472;-60
2022/11/23 09:00:28;;;;;;;;;4.00;4.00;;;;;;;;4720815;30;45428;-60
2022/11/23 09:02:54;;;;;;;;;3.67;3.67;;;;;;;;4721273;30;45561;-60
2022/11/23 09:05:19;;;;;;;;;6.00;3.67;;;;;;;;4715759;30;45412;-60
2022/11/23 09:07:44;;;;;;;;;4.33;4.33;;;;;;;;4720946;30;45293;-60
2022/11/23 09:10:09;;;;;;;;;7.00;3.67;;;;;;;;4716826;30;45225;-60
2022/11/23 09:12:35;;;;;;;;;5.33;3.67;;;;;;;;4716280;30;45503;-60
2022/11/23 09:15:00;;;;;;;;;4.67;3.33;;;;;;;;4719296;30;46319;-60
2022/11/23 09:17:25;;;;;;;;;2.00;2.00;;;;;;;;4720244;30;45396;-60
2022/11/23 09:19:50;;;;;;;;;3.33;2.00;;;;;;;;4720680;30;45494;-60
2022/11/23 09:22:15;;;;;;;;;3.00;3.00;;;;;;;;4720732;30;45479;-60
2022/11/23 09:24:40;;;;;;;;;4.00;3.00;;;;;;;;4720365;30;45360;-60
2022/11/23 09:27:06;;;;;;;;;6.33;3.33;;;;;;;;4720689;30;45464;-60
2022/11/23 09:29:31;;;;;;;;;3.00;3.00;;;;;;;;4719662;30;45432;-60
2022/11/23 09:31:56;;;;;;;;;4.00;3.00;;;;;;;;4718284;30;45880;-60
2022/11/23 09:34:21;;;;;;;;;3.00;3.00;;;;;;;;4719191;30;46165;-62
2022/11/23 09:36:47;;;;;;;;;2.33;2.33;;;;;;;;4718343;30;45369;-60
2022/11/23 09:39:12;;;;;;;;;6.33;4.00;;;;;;;;4718546;30;45428;-60
2022/11/23 09:41:56;;;;;;;;;5.33;4.33;;;;;;;;4720046;30;45732;-60
2022/11/23 09:44:40;;;;;;;;;5.00;3.67;;;;;;;;4708601;30;45452;-60
2022/11/23 09:47:25;;;;;;;;;3.33;3.00;;;;;;;;4724681;30;45311;-60
2022/11/23 09:50:02;;;;;;;;;3.67;3.00;;;;;;;;4713261;30;45427;-60
2022/11/23 09:52:28;;;;;;;;;4.00;4.00;;;;;;;;4712477;30;45566;-60
2022/11/23 09:54:55;;;;;;;;;4.00;2.33;;;;;;;;4694495;30;48422;-60
2022/11/23 09:57:24;;;;;;;;;3.00;2.00;;;;;;;;4712699;30;45424;-60
2022/11/23 09:59:52;;;;;;;;;3.00;3.00;;;;;;;;4718111;30;45229;-60
2022/11/23 10:02:23;;;;;;;;;3.33;3.33;;;;;;;;4719304;30;45546;-59
2022/11/23 10:04:49;;;;;;;;;4.00;3.00;;;;;;;;4731828;30;46456;-59
2022/11/23 10:07:21;;;;;;;;;3.33;3.33;;;;;;;;4726776;30;45423;-59
2022/11/23 10:09:52;;;;;;;;;5.33;3.00;;;;;;;;4720185;30;45351;-59
2022/11/23 10:12:38;;;;;;;;;3.33;3.33;;;;;;;;4726395;30;45312;-59
2022/11/23 10:15:22;;;;;;;;;4.00;2.67;;;;;;;;4705953;30;47080;-59
2022/11/23 10:18:02;;;;;;;;;4.00;2.00;;;;;;;;4720465;30;45459;-60
2022/11/23 10:20:39;;;;;;;;;3.67;3.67;;;;;;;;4719766;30;45338;-60
2022/11/23 10:23:23;;;;;;;;;3.67;3.67;;;;;;;;4722167;30;45415;-60
2022/11/23 10:25:50;;;;;;;;;5.33;3.00;;;;;;;;4720217;30;45280;-60
2022/11/23 10:28:17;;;;;;;;;3.00;3.00;;;;;;;;4724090;30;45509;-60
2022/11/23 10:30:44;;;;;;;;;6.33;4.00;;;;;;;;4719840;30;45430;-60
2022/11/23 10:33:20;;;;;;;;;4.33;3.67;;;;;;;;4718854;30;45621;-60
2022/11/23 10:35:45;;;;;;;;;4.00;4.00;;;;;;;;4718479;30;46082;-60
2022/11/23 10:38:11;;;;;;;;;8.33;6.00;;;;;;;;4719009;30;45542;-60
2022/11/23 10:41:54;;;;;;;;;3.00;3.00;;;;;;;;4396409;30;80173363;-59
2022/11/23 10:44:36;;;;;;;;;7.50;5.00;;;;;;;;3063255;30;24197431;-59
2022/11/23 10:47:32;;;;;;;;;2.00;2.00;;;;;;;;821096;30;90815365;-59
2022/11/23 10:50:18;;;;;;;;;7.00;7.00;;;;;;;;1497645;30;36394106;-59
2022/11/23 10:52:48;;;;;;;;;3.33;3.33;;;;;;;;2411482;30;15084115;-60
2022/11/23 10:55:25;;;;;;;;;2.00;2.00;;;;;;;;1192288;30;26676813;-60
2022/11/23 10:58:09;;;;;;;;;;;;;;;;;;495730;30;90597897;-59
2022/11/23 11:04:37;;;;;;;;;0.50;0.50;;;;;;;;611219;30;137202321;-59
2022/11/23 11:09:19;;;;;;;;;1.50;1.50;;;;;;;;2;158728695;158728695;-59
2022/11/23 11:20:00;;;;;;;;;0.50;0.50;;;;;;;;3;137596071;241084973;-59
2022/11/23 11:27:57;;;;;;;;;;;;;;;;;;2;234069432;234069432;-59
2022/11/23 11:37:16;;;;;;;;;1.00;1.00;;;;;;;;2;279086562;279086562;-59
2022/11/23 11:45:20;;;;;;;;;1.00;1.00;;;;;;;;2;234073844;234073844;-59
2022/11/23 11:54:50;;;;;;;;;3.00;3.00;;;;;;;;2;279085531;279085531;-59
2022/11/23 11:58:15;;;;;;;;;3.50;3.50;;;;;;;;2;203258548;203258548;-59
2022/11/23 12:00:40;;;;;;;;;4.25;3.00;;;;;;;;4690753;30;45551;-59
2022/11/23 12:03:05;;;;;;;;;4.00;4.00;;;;;;;;4709275;30;45369;-58
2022/11/23 12:05:41;;;;;;;;;6.00;5.00;;;;;;;;4323372;30;11944410;-58
2022/11/23 12:08:12;;;;;;;;;3.00;3.00;;;;;;;;4704325;30;45480;-58
2022/11/23 12:10:40;;;;;;;;;6.00;3.00;;;;;;;;4708113;30;45547;-58
2022/11/23 12:13:10;;;;;;;;;3.00;3.00;;;;;;;;4715619;30;45534;-58
2022/11/23 12:15:39;;;;;;;;;4.00;4.00;;;;;;;;4705006;30;47047;-58
2022/11/23 12:18:04;;;;;;;;;5.00;3.67;;;;;;;;4723162;30;45655;-59
2022/11/23 12:20:29;;;;;;;;;4.00;2.67;;;;;;;;4724570;30;45380;-58
2022/11/23 12:23:02;;;;;;;;;6.00;4.67;;;;;;;;4723572;30;45416;-59
2022/11/23 12:25:36;;;;;;;;;2.67;2.67;;;;;;;;4705665;30;46070;-59
2022/11/23 12:28:04;;;;;;;;;4.00;4.00;;;;;;;;4721498;30;45497;-59
2022/11/23 12:30:47;;;;;;;;;2.67;2.67;;;;;;;;4718032;30;45666;-59
2022/11/23 12:33:27;;;;;;;;;4.00;3.67;;;;;;;;4715517;30;45853;-59
2022/11/23 12:35:56;;;;;;;;;4.00;3.00;;;;;;;;4718104;30;46948;-59
2022/11/23 12:38:29;;;;;;;;;4.67;3.67;;;;;;;;4722316;30;45455;-59
2022/11/23 12:41:14;;;;;;;;;6.00;2.67;;;;;;;;4716393;30;45598;-59
2022/11/23 12:43:45;;;;;;;;;3.67;2.33;;;;;;;;4719341;30;45486;-59
2022/11/23 12:46:13;;;;;;;;;4.00;2.00;;;;;;;;4712791;30;46479;-59
2022/11/23 12:48:55;;;;;;;;;6.33;4.67;;;;;;;;4704124;30;45329;-59
2022/11/23 12:51:40;;;;;;;;;3.00;3.00;;;;;;;;4713526;30;45493;-59
2022/11/23 12:54:24;;;;;;;;;3.33;2.33;;;;;;;;4680956;30;45393;-59
2022/11/23 12:57:01;;;;;;;;;2.33;2.33;;;;;;;;4715391;30;45983;-58
2022/11/23 12:59:47;;;;;;;;;3.67;0.67;;;;;;;;4718258;30;45470;-58
2022/11/23 13:02:21;;;;;;;;;3.00;1.67;;;;;;;;4716109;30;45470;-58
2022/11/23 13:04:49;;;;;;;;;1.00;1.00;;;;;;;;4718703;30;45967;-58
2022/11/23 13:07:17;;;;;;;;;4.67;2.33;;;;;;;;4716820;30;45517;-58
2022/11/23 13:09:57;;;;;;;;;1.00;1.00;;;;;;;;4717865;30;45525;-59
2022/11/23 13:12:34;;;;;;;;;3.67;1.00;;;;;;;;4719431;30;45483;-58
2022/11/23 13:15:00;;;;;;;;;1.67;1.33;;;;;;;;4720526;30;45497;-59
2022/11/23 13:17:28;;;;;;;;;4.00;2.00;;;;;;;;4695482;30;47154;-59
2022/11/23 13:20:11;;;;;;;;;2.00;2.00;;;;;;;;4716263;30;45372;-59
2022/11/23 13:22:38;;;;;;;;;7.00;2.00;;;;;;;;4708095;30;45464;-58
2022/11/23 13:25:03;;;;;;;;;2.00;1.33;;;;;;;;4715548;30;45535;-59
2022/11/23 13:27:30;;;;;;;;;5.33;1.67;;;;;;;;4704875;30;45248;-59
2022/11/23 13:30:00;;;;;;;;;2.00;0.33;;;;;;;;4718722;30;45618;-59
2022/11/23 13:32:37;;;;;;;;;3.00;2.00;;;;;;;;4719449;30;45664;-59
2022/11/23 13:35:03;;;;;;;;;4.33;3.00;;;;;;;;4720572;30;45657;-59
2022/11/23 13:37:28;;;;;;;;;1.00;1.00;;;;;;;;4708917;30;45346;-59
2022/11/23 13:39:56;;;;;;;;;3.00;1.67;;;;;;;;4719238;30;45527;-59
2022/11/23 13:42:23;;;;;;;;;4.00;3.00;;;;;;;;4720086;30;45237;-58
2022/11/23 13:45:08;;;;;;;;;6.67;2.33;;;;;;;;4717250;30;45511;-58
2022/11/23 13:47:33;;;;;;;;;4.00;2.67;;;;;;;;4709276;30;45430;-60
2022/11/23 13:50:18;;;;;;;;;5.33;2.33;;;;;;;;4712409;30;45481;-60
2022/11/23 13:52:48;;;;;;;;;2.00;1.00;;;;;;;;4711678;30;46030;-60
2022/11/23 13:55:13;;;;;;;;;2.33;1.67;;;;;;;;4718544;30;45874;-60
2022/11/23 13:57:41;;;;;;;;;1.67;1.67;;;;;;;;4704107;30;47667;-59
2022/11/23 14:00:25;;;;;;;;;1.00;1.00;;;;;;;;4717943;30;45480;-59
2022/11/23 14:02:50;;;;;;;;;6.33;1.67;;;;;;;;4715400;30;45530;-59
2022/11/23 14:05:50;;;;;;;;;6.00;1.00;;;;;;;;4721963;30;47029;-58
2022/11/23 14:08:18;;;;;;;;;1.00;1.00;;;;;;;;4717698;30;46219;-59
2022/11/23 14:10:43;;;;;;;;;3.00;2.00;;;;;;;;4729366;30;45982;-59
2022/11/23 14:13:17;;;;;;;;;4.00;2.00;;;;;;;;4720187;30;45502;-59
2022/11/23 14:15:45;;;;;;;;;2.33;1.00;;;;;;;;4722217;30;45564;-59
2022/11/23 14:18:29;;;;;;;;;10.67;5.00;;;;;;;;4714932;30;46284;-59
2022/11/23 14:21:12;;;;;;;;;6.67;2.00;;;;;;;;4714418;30;45550;-60
2022/11/23 14:23:43;;;;;;;;;5.67;3.00;;;;;;;;4715952;30;45409;-60
2022/11/23 14:26:14;;;;;;;;;4.33;4.00;;;;;;;;4717121;30;45634;-59
2022/11/23 14:28:59;;;;;;;;;6.33;3.33;;;;;;;;4712196;30;46206;-58
2022/11/23 14:31:31;;;;;;;;;3.00;2.00;;;;;;;;4671154;30;45547;-60
2022/11/23 14:34:08;;;;;;;;;4.00;2.67;;;;;;;;4719028;30;45509;-60
2022/11/23 14:36:33;;;;;;;;;5.00;4.00;;;;;;;;4715977;30;45705;-58
2022/11/23 14:39:26;;;;;;;;;2.00;2.00;;;;;;;;4714018;30;45988;-59
2022/11/23 14:41:53;;;;;;;;;3.33;1.00;;;;;;;;4713455;30;45233;-59
2022/11/23 14:44:22;;;;;;;;;3.33;3.00;;;;;;;;4717661;30;45589;-60
2022/11/23 14:47:00;;;;;;;;;3.00;2.67;;;;;;;;4714088;30;45301;-59
2022/11/23 14:49:25;;;;;;;;;6.67;2.67;;;;;;;;4717394;30;46365;-59
2022/11/23 14:51:51;;;;;;;;;3.33;2.00;;;;;;;;4719976;30;45395;-59
2022/11/23 14:54:16;;;;;;;;;2.33;2.33;;;;;;;;4710398;30;45570;-59
2022/11/23 14:56:44;;;;;;;;;7.00;2.33;;;;;;;;4717783;30;45481;-59
2022/11/23 14:59:18;;;;;;;;;5.33;2.67;;;;;;;;4712272;30;46902;-59
2022/11/23 15:01:51;;;;;;;;;5.67;3.00;;;;;;;;4719766;30;45283;-59
2022/11/23 15:04:22;;;;;;;;;4.00;3.67;;;;;;;;4719165;30;45552;-59
2022/11/23 15:06:49;;;;;;;;;3.00;3.00;;;;;;;;4714443;30;45361;-59
2022/11/23 15:09:18;;;;;;;;;4.00;4.00;;;;;;;;4712803;30;45726;-59
2022/11/23 15:11:43;;;;;;;;;4.33;2.00;;;;;;;;4710836;30;45665;-59
2022/11/23 15:14:34;;;;;;;;;6.33;2.00;;;;;;;;4718166;30;45597;-59
2022/11/23 15:17:11;;;;;;;;;10.00;2.33;;;;;;;;4715250;30;45907;-59
2022/11/23 15:19:37;;;;;;;;;2.67;1.00;;;;;;;;4708273;30;46383;-59
2022/11/23 15:22:02;;;;;;;;;9.33;5.67;;;;;;;;4714436;30;45396;-59
2022/11/23 15:24:27;;;;;;;;;4.00;2.67;;;;;;;;4708425;30;45356;-59
2022/11/23 15:26:57;;;;;;;;;6.50;3.50;;;;;;;;4719907;30;45318;-59
2022/11/23 15:29:33;;;;;;;;;4.33;3.00;;;;;;;;4708850;30;45650;-59
2022/11/23 15:31:58;;;;;;;;;3.67;3.00;;;;;;;;4717076;30;45514;-59
2022/11/23 15:34:24;;;;;;;;;4.33;4.00;;;;;;;;4713581;30;45470;-59
2022/11/23 15:36:50;;;;;;;;;4.67;3.67;;;;;;;;4712303;30;45348;-59
2022/11/23 15:39:20;;;;;;;;;5.67;4.67;;;;;;;;4715310;30;46025;-59
2022/11/23 15:41:46;;;;;;;;;3.33;3.33;;;;;;;;4715004;30;45430;-59
2022/11/23 15:44:23;;;;;;;;;5.33;3.00;;;;;;;;4722792;30;45479;-59
2022/11/23 15:46:49;;;;;;;;;5.00;3.00;;;;;;;;4721336;30;45387;-59
2022/11/23 15:49:15;;;;;;;;;4.67;3.33;;;;;;;;4717750;30;45475;-59
2022/11/23 15:51:41;;;;;;;;;3.00;2.00;;;;;;;;4721894;30;45634;-59
2022/11/23 15:54:32;;;;;;;;;6.00;4.00;;;;;;;;4718821;30;45480;-59
2022/11/23 15:56:58;;;;;;;;;3.33;2.00;;;;;;;;4718421;30;46253;-59
2022/11/23 15:59:27;;;;;;;;;6.00;3.33;;;;;;;;4717120;30;46241;-59
2022/11/23 16:01:52;;;;;;;;;7.00;4.33;;;;;;;;4720430;30;45493;-59
2022/11/23 16:04:23;;;;;;;;;8.00;5.00;;;;;;;;4721693;30;45463;-59
2022/11/23 16:06:49;;;;;;;;;8.33;4.67;;;;;;;;4722464;30;45623;-59
2022/11/23 16:09:33;;;;;;;;;20.00;13.33;;;;;;;;4722591;30;45572;-59
2022/11/23 16:11:58;;;;;;;;;6.00;3.67;;;;;;;;4721723;30;45574;-60
2022/11/23 16:14:27;;;;;;;;;4.00;4.00;;;;;;;;4722129;30;45469;-59
2022/11/23 16:17:04;;;;;;;;;7.33;5.33;;;;;;;;4726481;30;45411;-59
2022/11/23 16:19:30;;;;;;;;;5.00;3.33;;;;;;;;4721452;30;47209;-60
2022/11/23 16:21:58;;;;;;;;;4.00;4.00;;;;;;;;4722133;30;45302;-59
2022/11/23 16:24:24;;;;;;;;;6.33;3.00;;;;;;;;4719612;30;45313;-59
2022/11/23 16:26:49;;;;;;;;;5.33;5.00;;;;;;;;4722185;30;45532;-59
2022/11/23 16:29:22;;;;;;;;;10.33;6.67;;;;;;;;4719080;30;46211;-59
2022/11/23 16:32:10;;;;;;;;;6.67;5.33;;;;;;;;4718529;30;45535;-59
2022/11/23 16:34:35;;;;;;;;;9.67;6.67;;;;;;;;4713631;30;45658;-59
2022/11/23 16:37:02;;;;;;;;;6.67;5.67;;;;;;;;4721810;30;45320;-60
2022/11/23 16:39:28;;;;;;;;;6.67;6.00;;;;;;;;4721829;30;46236;-59
2022/11/23 16:41:53;;;;;;;;;6.67;6.67;;;;;;;;4721434;30;45340;-59
2022/11/23 16:44:18;;;;;;;;;6.00;5.67;;;;;;;;4715948;30;45280;-59
2022/11/23 16:46:45;;;;;;;;;8.00;6.33;;;;;;;;4720960;30;45303;-59
2022/11/23 16:49:15;;;;;;;;;8.33;4.67;;;;;;;;4720975;30;46211;-60
2022/11/23 16:51:41;;;;;;;;;10.00;6.00;;;;;;;;4720143;30;45499;-59
2022/11/23 16:54:07;;;;;;;;;8.33;5.00;;;;;;;;4714087;30;45532;-59
2022/11/23 16:56:33;;;;;;;;;9.00;6.00;;;;;;;;4703001;30;45396;-59
2022/11/23 16:58:58;;;;;;;;;7.00;4.67;;;;;;;;4719807;30;46293;-59
2022/11/23 17:01:25;;;;;;;;;8.00;6.00;;;;;;;;4709512;30;45722;-59
2022/11/23 17:03:50;;;;;;;;;7.67;6.00;;;;;;;;4718929;30;45439;-59
2022/11/23 17:06:16;;;;;;;;;6.67;5.00;;;;;;;;4719959;30;45213;-59
2022/11/23 17:08:43;;;;;;;;;5.00;3.67;;;;;;;;4720001;30;45958;-59
2022/11/23 17:11:13;;;;;;;;;4.33;4.00;;;;;;;;4714180;30;45781;-59
2022/11/23 17:13:38;;;;;;;;;3.33;3.33;;;;;;;;4720234;30;45376;-59
2022/11/23 17:16:04;;;;;;;;;5.00;3.67;;;;;;;;4715632;30;45285;-59
2022/11/23 17:18:29;;;;;;;;;9.33;5.67;;;;;;;;4718715;30;45471;-59
2022/11/23 17:20:55;;;;;;;;;8.00;4.33;;;;;;;;4715814;30;45478;-60
2022/11/23 17:23:21;;;;;;;;;5.67;4.00;;;;;;;;4714915;30;45300;-59
2022/11/23 17:25:46;;;;;;;;;6.67;4.67;;;;;;;;4720298;30;45170;-59
2022/11/23 17:28:15;;;;;;;;;5.33;5.33;;;;;;;;4720813;30;46235;-59
2022/11/23 17:30:41;;;;;;;;;7.00;6.00;;;;;;;;4711240;30;45526;-59
2022/11/23 17:33:10;;;;;;;;;10.67;7.00;;;;;;;;4715148;30;45482;-57
2022/11/23 17:35:35;;;;;;;;;3.67;3.67;;;;;;;;4718351;30;45435;-58
2022/11/23 17:38:01;;;;;;;;;6.67;6.67;;;;;;;;4708671;30;46066;-59
2022/11/23 17:40:26;;;;;;;;;7.00;4.33;;;;;;;;4719347;30;45308;-59
2022/11/23 17:42:51;;;;;;;;;7.33;5.00;;;;;;;;4713165;30;45447;-60
2022/11/23 17:45:17;;;;;;;;;6.33;4.33;;;;;;;;4714039;30;45579;-59
2022/11/23 17:47:43;;;;;;;;;8.67;5.00;;;;;;;;4703640;30;48939;-59
2022/11/23 17:50:11;;;;;;;;;8.33;5.67;;;;;;;;4718640;30;45793;-59
2022/11/23 17:52:39;;;;;;;;;10.33;5.00;;;;;;;;4719147;30;45534;-59
2022/11/23 17:55:04;;;;;;;;;4.00;4.00;;;;;;;;4717445;30;45466;-58
2022/11/23 17:57:30;;;;;;;;;6.00;4.33;;;;;;;;4715443;30;45583;-59
2022/11/23 17:59:55;;;;;;;;;3.00;1.00;;;;;;;;4719649;30;45349;-59
2022/11/23 18:02:20;;;;;;;;;6.00;5.00;;;;;;;;4719091;30;45412;-59
2022/11/23 18:04:46;;;;;;;;;6.33;5.00;;;;;;;;4718324;30;45338;-59
2022/11/23 18:07:12;;;;;;;;;8.00;7.00;;;;;;;;4721729;30;47102;-59
2022/11/23 18:09:38;;;;;;;;;8.33;4.67;;;;;;;;4723951;30;45329;-59
2022/11/23 18:12:03;;;;;;;;;7.00;4.33;;;;;;;;4711166;30;45349;-59
2022/11/23 18:14:29;;;;;;;;;7.33;5.00;;;;;;;;4720448;30;45595;-60
2022/11/23 18:16:55;;;;;;;;;12.00;5.67;;;;;;;;4718784;30;46243;-59
2022/11/23 18:19:20;;;;;;;;;7.33;6.33;;;;;;;;4723277;30;45691;-60
2022/11/23 18:21:46;;;;;;;;;8.33;6.00;;;;;;;;4711095;30;45697;-59
2022/11/23 18:24:11;;;;;;;;;8.33;4.00;;;;;;;;4719458;30;45513;-61
2022/11/23 18:26:36;;;;;;;;;6.33;5.00;;;;;;;;4711934;30;45982;-64
2022/11/23 18:29:01;;;;;;;;;9.00;5.67;;;;;;;;4716716;30;45447;-67
2022/11/23 18:31:27;;;;;;;;;9.00;6.67;;;;;;;;4715559;30;45669;-69
2022/11/23 18:33:52;;;;;;;;;7.33;5.33;;;;;;;;4716366;30;45627;-61
2022/11/23 18:36:18;;;;;;;;;9.33;5.33;;;;;;;;4700894;30;46914;-59
2022/11/23 18:38:44;;;;;;;;;7.33;4.33;;;;;;;;4722065;30;45354;-59
2022/11/23 18:41:09;;;;;;;;;6.67;6.00;;;;;;;;4715037;30;45253;-60
2022/11/23 18:43:35;;;;;;;;;9.33;6.67;;;;;;;;4719601;30;45443;-61
2022/11/23 18:46:02;;;;;;;;;7.67;4.67;;;;;;;;4719386;30;47122;-59
2022/11/23 18:48:27;;;;;;;;;8.00;6.33;;;;;;;;4706616;30;45534;-59
2022/11/23 18:50:53;;;;;;;;;8.00;7.00;;;;;;;;4719797;30;45407;-59
2022/11/23 18:53:18;;;;;;;;;8.33;7.00;;;;;;;;4713238;30;45741;-61
2022/11/23 18:55:43;;;;;;;;;12.00;5.00;;;;;;;;4714742;30;46025;-56
2022/11/23 18:58:09;;;;;;;;;6.33;4.00;;;;;;;;4720854;30;45950;-61
2022/11/23 19:00:34;;;;;;;;;8.33;5.33;;;;;;;;4714790;30;45521;-57
2022/11/23 19:03:00;;;;;;;;;12.33;6.00;;;;;;;;4718273;30;45965;-58
2022/11/23 19:05:27;;;;;;;;;12.00;9.67;;;;;;;;4720890;30;46312;-59
2022/11/23 19:07:52;;;;;;;;;12.00;6.00;;;;;;;;4723430;30;46346;-59
2022/11/23 19:10:18;;;;;;;;;9.00;7.00;;;;;;;;4719358;30;45489;-61
2022/11/23 19:12:44;;;;;;;;;5.00;5.00;;;;;;;;4719530;30;45488;-59
2022/11/23 19:15:10;;;;;;;;;5.67;5.67;;;;;;;;4727248;30;46225;-58
2022/11/23 19:17:35;;;;;;;;;9.67;6.67;;;;;;;;4711535;30;45331;-57
2022/11/23 19:20:00;;;;;;;;;8.67;7.33;;;;;;;;4717315;30;45686;-60
2022/11/23 19:22:26;;;;;;;;;12.67;5.67;;;;;;;;4716515;30;45521;-58
2022/11/23 19:24:51;;;;;;;;;16.00;6.00;;;;;;;;4713680;30;46793;-61
2022/11/23 19:27:16;;;;;;;;;10.00;6.00;;;;;;;;4716480;30;46689;-61
2022/11/23 19:29:41;;;;;;;;;7.67;6.33;;;;;;;;4706417;30;45561;-57
2022/11/23 19:32:07;;;;;;;;;7.67;7.67;;;;;;;;4711989;30;45702;-58
2022/11/23 19:34:32;;;;;;;;;8.67;6.33;;;;;;;;4713457;30;45472;-57
2022/11/23 19:36:57;;;;;;;;;7.33;5.67;;;;;;;;4712972;30;45347;-56
2022/11/23 19:39:22;;;;;;;;;10.67;6.33;;;;;;;;4713931;30;45546;-57
2022/11/23 19:41:48;;;;;;;;;8.00;5.67;;;;;;;;4706942;30;46020;-56
2022/11/23 19:44:13;;;;;;;;;9.00;7.00;;;;;;;;4715999;30;46217;-57
2022/11/23 19:46:38;;;;;;;;;8.67;5.33;;;;;;;;4717626;30;45529;-56
2022/11/23 19:49:03;;;;;;;;;8.33;6.00;;;;;;;;4704489;30;45613;-57
2022/11/23 19:51:28;;;;;;;;;9.00;7.33;;;;;;;;4717038;30;45538;-55
2022/11/23 19:53:56;;;;;;;;;7.00;5.67;;;;;;;;4718952;30;45483;-57
2022/11/23 19:56:22;;;;;;;;;7.00;5.00;;;;;;;;4703620;30;45263;-57
2022/11/23 19:58:51;;;;;;;;;10.00;6.00;;;;;;;;4707923;30;45411;-56
2022/11/23 20:01:17;;;;;;;;;4.67;4.33;;;;;;;;4709836;30;45345;-57
2022/11/23 20:03:47;;;;;;;;;10.00;5.33;;;;;;;;4711435;30;47278;-58
2022/11/23 20:06:14;;;;;;;;;6.33;4.00;;;;;;;;4717314;30;45785;-57
2022/11/23 20:08:39;;;;;;;;;7.67;5.33;;;;;;;;4718868;30;45477;-58
2022/11/23 20:11:08;;;;;;;;;5.67;4.33;;;;;;;;4714173;30;45548;-57
2022/11/23 20:13:34;;;;;;;;;8.00;6.33;;;;;;;;4713137;30;46158;-57
2022/11/23 20:16:07;;;;;;;;;9.33;6.33;;;;;;;;4711458;30;45788;-57
2022/11/23 20:18:32;;;;;;;;;7.67;5.67;;;;;;;;4708921;30;45462;-56
2022/11/23 20:20:58;;;;;;;;;9.00;5.00;;;;;;;;4713182;30;45348;-55
2022/11/23 20:23:23;;;;;;;;;7.00;5.00;;;;;;;;4704755;30;46161;-56
2022/11/23 20:25:48;;;;;;;;;8.00;6.00;;;;;;;;4715537;30;45417;-56
2022/11/23 20:28:14;;;;;;;;;12.00;6.00;;;;;;;;4718022;30;45465;-57
2022/11/23 20:30:40;;;;;;;;;9.00;5.33;;;;;;;;4708932;30;45591;-56
2022/11/23 20:33:05;;;;;;;;;3.00;3.00;;;;;;;;4716192;30;45577;-57
2022/11/23 20:35:31;;;;;;;;;5.67;4.67;;;;;;;;4715670;30;45488;-55
2022/11/23 20:37:56;;;;;;;;;3.33;2.67;;;;;;;;4719214;30;45495;-56
2022/11/23 20:40:21;;;;;;;;;10.00;6.67;;;;;;;;4718580;30;45442;-55
2022/11/23 20:42:46;;;;;;;;;8.00;6.67;;;;;;;;4719893;30;46110;-55
2022/11/23 20:45:12;;;;;;;;;7.00;4.00;;;;;;;;4712448;30;45440;-56
2022/11/23 20:47:37;;;;;;;;;8.67;6.00;;;;;;;;4719598;30;45382;-57
2022/11/23 20:50:03;;;;;;;;;8.33;6.33;;;;;;;;4709457;30;45586;-56
2022/11/23 20:52:28;;;;;;;;;9.67;6.00;;;;;;;;4718784;30;46074;-57
2022/11/23 20:54:53;;;;;;;;;7.00;4.67;;;;;;;;4721177;30;45489;-57
2022/11/23 20:57:20;;;;;;;;;10.00;4.00;;;;;;;;4718647;30;45509;-57
2022/11/23 20:59:45;;;;;;;;;10.00;4.00;;;;;;;;4721495;30;45589;-57